sensor_id;sensor_type;location;lat;lon;timestamp;P1;durP1;ratioP1;P2;durP2;ratioP2
20348;SDS011;10332;50.208;18.988;2023-06-10T00:00:03;7.43;;;6.75;;
20348;SDS011;10332;50.208;18.988;2023-06-10T00:02:52;6.57;;;5.93;;
20348;SDS011;10332;50.208;18.988;2023-06-10T00:05:20;7.03;;;6.40;;
20348;SDS011;10332;50.208;18.988;2023-06-10T00:07:48;10.48;;;9.38;;
20348;SDS011;10332;50.208;18.988;2023-06-10T00:10:16;12.40;;;10.18;;
20348;SDS011;10332;50.208;18.988;2023-06-10T00:12:43;12.75;;;10.23;;
20348;SDS011;10332;50.208;18.988;2023-06-10T00:15:11;10.48;;;9.38;;
20348;SDS011;10332;50.208;18.988;2023-06-10T00:17:39;10.57;;;9.30;;
20348;SDS011;10332;50.208;18.988;2023-06-10T00:20:08;10.25;;;9.15;;
20348;SDS011;10332;50.208;18.988;2023-06-10T00:22:39;13.80;;;12.02;;
20348;SDS011;10332;50.208;18.988;2023-06-10T00:25:09;11.90;;;10.70;;
20348;SDS011;10332;50.208;18.988;2023-06-10T00:27:37;14.82;;;12.20;;
20348;SDS011;10332;50.208;18.988;2023-06-10T00:30:05;12.15;;;10.55;;
20348;SDS011;10332;50.208;18.988;2023-06-10T00:32:34;13.45;;;11.43;;
20348;SDS011;10332;50.208;18.988;2023-06-10T00:35:03;11.63;;;10.38;;
20348;SDS011;10332;50.208;18.988;2023-06-10T00:37:33;11.38;;;10.02;;
20348;SDS011;10332;50.208;18.988;2023-06-10T00:40:05;11.90;;;10.65;;
20348;SDS011;10332;50.208;18.988;2023-06-10T00:42:35;11.95;;;10.25;;
20348;SDS011;10332;50.208;18.988;2023-06-10T00:45:03;11.43;;;10.10;;
20348;SDS011;10332;50.208;18.988;2023-06-10T00:47:33;10.70;;;9.60;;
20348;SDS011;10332;50.208;18.988;2023-06-10T00:50:02;9.82;;;8.88;;
20348;SDS011;10332;50.208;18.988;2023-06-10T00:52:31;10.98;;;9.88;;
20348;SDS011;10332;50.208;18.988;2023-06-10T00:54:58;8.73;;;7.88;;
20348;SDS011;10332;50.208;18.988;2023-06-10T00:57:26;7.70;;;6.90;;
20348;SDS011;10332;50.208;18.988;2023-06-10T00:59:56;12.75;;;11.45;;
20348;SDS011;10332;50.208;18.988;2023-06-10T01:02:24;13.75;;;12.00;;
20348;SDS011;10332;50.208;18.988;2023-06-10T01:04:52;10.90;;;9.80;;
20348;SDS011;10332;50.208;18.988;2023-06-10T01:13:09;7.40;;;6.70;;
20348;SDS011;10332;50.208;18.988;2023-06-10T01:15:38;6.53;;;5.93;;
20348;SDS011;10332;50.208;18.988;2023-06-10T01:18:07;5.75;;;5.25;;
20348;SDS011;10332;50.208;18.988;2023-06-10T01:20:37;6.43;;;5.82;;
20348;SDS011;10332;50.208;18.988;2023-06-10T01:23:07;5.95;;;5.35;;
20348;SDS011;10332;50.208;18.988;2023-06-10T01:25:39;6.22;;;5.63;;
20348;SDS011;10332;50.208;18.988;2023-06-10T01:28:31;7.45;;;6.75;;
20348;SDS011;10332;50.208;18.988;2023-06-10T01:31:36;6.35;;;5.75;;
20348;SDS011;10332;50.208;18.988;2023-06-10T01:34:16;6.00;;;5.50;;
20348;SDS011;10332;50.208;18.988;2023-06-10T01:36:48;6.60;;;6.00;;
20348;SDS011;10332;50.208;18.988;2023-06-10T01:39:17;7.95;;;7.20;;
20348;SDS011;10332;50.208;18.988;2023-06-10T01:41:52;9.07;;;8.27;;
20348;SDS011;10332;50.208;18.988;2023-06-10T01:44:21;9.57;;;8.63;;
20348;SDS011;10332;50.208;18.988;2023-06-10T01:46:50;10.02;;;9.02;;
20348;SDS011;10332;50.208;18.988;2023-06-10T01:49:17;14.00;;;12.60;;
20348;SDS011;10332;50.208;18.988;2023-06-10T01:51:45;14.70;;;13.13;;
20348;SDS011;10332;50.208;18.988;2023-06-10T01:54:12;17.25;;;15.50;;
20348;SDS011;10332;50.208;18.988;2023-06-10T01:56:40;15.05;;;13.25;;
20348;SDS011;10332;50.208;18.988;2023-06-10T01:59:07;12.55;;;11.32;;
20348;SDS011;10332;50.208;18.988;2023-06-10T02:01:36;12.88;;;11.57;;
20348;SDS011;10332;50.208;18.988;2023-06-10T02:04:03;11.82;;;10.55;;
20348;SDS011;10332;50.208;18.988;2023-06-10T02:06:31;9.10;;;8.27;;
20348;SDS011;10332;50.208;18.988;2023-06-10T02:08:59;9.80;;;8.85;;
20348;SDS011;10332;50.208;18.988;2023-06-10T02:11:26;9.48;;;8.57;;
20348;SDS011;10332;50.208;18.988;2023-06-10T02:13:54;8.90;;;8.10;;
20348;SDS011;10332;50.208;18.988;2023-06-10T02:16:21;9.80;;;8.80;;
20348;SDS011;10332;50.208;18.988;2023-06-10T02:18:49;9.85;;;8.88;;
20348;SDS011;10332;50.208;18.988;2023-06-10T02:21:16;11.95;;;10.75;;
20348;SDS011;10332;50.208;18.988;2023-06-10T02:23:44;10.23;;;9.23;;
20348;SDS011;10332;50.208;18.988;2023-06-10T02:26:11;11.27;;;10.15;;
20348;SDS011;10332;50.208;18.988;2023-06-10T02:28:42;8.48;;;7.70;;
20348;SDS011;10332;50.208;18.988;2023-06-10T02:31:10;10.05;;;9.05;;
20348;SDS011;10332;50.208;18.988;2023-06-10T02:33:38;9.40;;;8.50;;
20348;SDS011;10332;50.208;18.988;2023-06-10T02:36:07;8.68;;;7.88;;
20348;SDS011;10332;50.208;18.988;2023-06-10T02:38:34;9.35;;;8.43;;
20348;SDS011;10332;50.208;18.988;2023-06-10T02:41:02;6.95;;;6.25;;
20348;SDS011;10332;50.208;18.988;2023-06-10T02:43:29;7.00;;;6.40;;
20348;SDS011;10332;50.208;18.988;2023-06-10T02:45:57;8.50;;;7.70;;
20348;SDS011;10332;50.208;18.988;2023-06-10T02:48:24;8.60;;;7.80;;
20348;SDS011;10332;50.208;18.988;2023-06-10T02:50:52;8.43;;;7.63;;
20348;SDS011;10332;50.208;18.988;2023-06-10T02:53:19;8.30;;;7.50;;
20348;SDS011;10332;50.208;18.988;2023-06-10T02:55:49;6.82;;;6.22;;
20348;SDS011;10332;50.208;18.988;2023-06-10T02:58:16;7.70;;;6.90;;
20348;SDS011;10332;50.208;18.988;2023-06-10T03:00:44;9.15;;;8.20;;
20348;SDS011;10332;50.208;18.988;2023-06-10T03:03:11;11.32;;;10.23;;
20348;SDS011;10332;50.208;18.988;2023-06-10T03:05:39;11.48;;;10.27;;
20348;SDS011;10332;50.208;18.988;2023-06-10T03:08:07;14.27;;;12.77;;
20348;SDS011;10332;50.208;18.988;2023-06-10T03:10:34;16.77;;;14.30;;
20348;SDS011;10332;50.208;18.988;2023-06-10T03:13:02;15.63;;;13.55;;
20348;SDS011;10332;50.208;18.988;2023-06-10T03:15:30;29.10;;;23.40;;
20348;SDS011;10332;50.208;18.988;2023-06-10T03:17:59;22.40;;;18.02;;
20348;SDS011;10332;50.208;18.988;2023-06-10T03:20:27;17.77;;;15.88;;
20348;SDS011;10332;50.208;18.988;2023-06-10T03:22:56;16.48;;;14.73;;
20348;SDS011;10332;50.208;18.988;2023-06-10T03:25:24;16.85;;;14.73;;
20348;SDS011;10332;50.208;18.988;2023-06-10T03:27:52;17.10;;;15.30;;
20348;SDS011;10332;50.208;18.988;2023-06-10T03:30:20;18.30;;;15.32;;
20348;SDS011;10332;50.208;18.988;2023-06-10T03:32:47;16.00;;;13.52;;
20348;SDS011;10332;50.208;18.988;2023-06-10T03:35:16;18.15;;;15.70;;
20348;SDS011;10332;50.208;18.988;2023-06-10T03:37:44;16.40;;;14.70;;
20348;SDS011;10332;50.208;18.988;2023-06-10T03:40:12;19.60;;;16.15;;
20348;SDS011;10332;50.208;18.988;2023-06-10T03:42:39;20.90;;;17.08;;
20348;SDS011;10332;50.208;18.988;2023-06-10T03:45:07;16.05;;;14.38;;
20348;SDS011;10332;50.208;18.988;2023-06-10T03:47:36;16.38;;;14.65;;
20348;SDS011;10332;50.208;18.988;2023-06-10T03:50:04;20.52;;;18.35;;
20348;SDS011;10332;50.208;18.988;2023-06-10T03:52:32;18.73;;;16.77;;
20348;SDS011;10332;50.208;18.988;2023-06-10T03:55:02;24.05;;;21.52;;
20348;SDS011;10332;50.208;18.988;2023-06-10T03:57:30;20.58;;;18.38;;
20348;SDS011;10332;50.208;18.988;2023-06-10T03:59:58;17.52;;;15.70;;
20348;SDS011;10332;50.208;18.988;2023-06-10T04:02:26;22.20;;;19.70;;
20348;SDS011;10332;50.208;18.988;2023-06-10T04:04:53;19.25;;;17.25;;
20348;SDS011;10332;50.208;18.988;2023-06-10T04:07:21;19.02;;;16.85;;
20348;SDS011;10332;50.208;18.988;2023-06-10T04:09:48;18.65;;;16.75;;
20348;SDS011;10332;50.208;18.988;2023-06-10T04:12:17;19.75;;;16.70;;
20348;SDS011;10332;50.208;18.988;2023-06-10T04:14:44;19.08;;;16.73;;
20348;SDS011;10332;50.208;18.988;2023-06-10T04:17:12;21.70;;;17.48;;
20348;SDS011;10332;50.208;18.988;2023-06-10T04:19:39;20.83;;;18.48;;
20348;SDS011;10332;50.208;18.988;2023-06-10T04:22:07;19.67;;;17.63;;
20348;SDS011;10332;50.208;18.988;2023-06-10T04:24:34;19.38;;;16.45;;
20348;SDS011;10332;50.208;18.988;2023-06-10T04:27:02;16.95;;;15.15;;
20348;SDS011;10332;50.208;18.988;2023-06-10T04:29:30;23.40;;;18.27;;
20348;SDS011;10332;50.208;18.988;2023-06-10T04:31:57;16.98;;;15.18;;
20348;SDS011;10332;50.208;18.988;2023-06-10T04:34:25;18.35;;;15.27;;
20348;SDS011;10332;50.208;18.988;2023-06-10T04:36:53;15.90;;;14.20;;
20348;SDS011;10332;50.208;18.988;2023-06-10T04:39:21;16.38;;;14.68;;
20348;SDS011;10332;50.208;18.988;2023-06-10T04:41:49;22.65;;;19.70;;
20348;SDS011;10332;50.208;18.988;2023-06-10T04:44:16;21.55;;;18.65;;
20348;SDS011;10332;50.208;18.988;2023-06-10T04:46:45;20.25;;;16.40;;
20348;SDS011;10332;50.208;18.988;2023-06-10T04:49:12;16.73;;;15.02;;
20348;SDS011;10332;50.208;18.988;2023-06-10T04:51:43;17.30;;;14.88;;
20348;SDS011;10332;50.208;18.988;2023-06-10T04:54:11;16.40;;;13.98;;
20348;SDS011;10332;50.208;18.988;2023-06-10T04:56:38;15.30;;;13.77;;
20348;SDS011;10332;50.208;18.988;2023-06-10T04:59:06;14.70;;;13.25;;
20348;SDS011;10332;50.208;18.988;2023-06-10T05:01:33;15.43;;;13.82;;
20348;SDS011;10332;50.208;18.988;2023-06-10T05:04:01;16.58;;;12.90;;
20348;SDS011;10332;50.208;18.988;2023-06-10T05:06:29;14.43;;;12.98;;
20348;SDS011;10332;50.208;18.988;2023-06-10T05:08:57;16.20;;;13.25;;
20348;SDS011;10332;50.208;18.988;2023-06-10T05:11:24;17.50;;;12.32;;
20348;SDS011;10332;50.208;18.988;2023-06-10T05:13:52;15.88;;;14.15;;
20348;SDS011;10332;50.208;18.988;2023-06-10T05:16:19;12.90;;;11.52;;
20348;SDS011;10332;50.208;18.988;2023-06-10T05:18:48;12.77;;;11.18;;
20348;SDS011;10332;50.208;18.988;2023-06-10T05:21:17;13.80;;;11.27;;
20348;SDS011;10332;50.208;18.988;2023-06-10T05:23:45;11.40;;;10.20;;
20348;SDS011;10332;50.208;18.988;2023-06-10T05:26:12;12.50;;;10.18;;
20348;SDS011;10332;50.208;18.988;2023-06-10T05:28:40;12.93;;;10.13;;
20348;SDS011;10332;50.208;18.988;2023-06-10T05:31:08;11.30;;;9.25;;
20348;SDS011;10332;50.208;18.988;2023-06-10T05:33:35;10.60;;;9.23;;
20348;SDS011;10332;50.208;18.988;2023-06-10T05:36:03;11.48;;;9.32;;
20348;SDS011;10332;50.208;18.988;2023-06-10T05:38:31;12.60;;;9.05;;
20348;SDS011;10332;50.208;18.988;2023-06-10T05:40:58;15.45;;;12.98;;
20348;SDS011;10332;50.208;18.988;2023-06-10T05:43:26;15.07;;;11.93;;
20348;SDS011;10332;50.208;18.988;2023-06-10T05:45:53;11.07;;;9.52;;
20348;SDS011;10332;50.208;18.988;2023-06-10T05:48:21;8.68;;;7.85;;
20348;SDS011;10332;50.208;18.988;2023-06-10T05:50:49;9.23;;;8.32;;
20348;SDS011;10332;50.208;18.988;2023-06-10T05:53:16;10.07;;;8.00;;
20348;SDS011;10332;50.208;18.988;2023-06-10T05:55:44;9.38;;;8.38;;
20348;SDS011;10332;50.208;18.988;2023-06-10T05:58:13;8.82;;;7.60;;
20348;SDS011;10332;50.208;18.988;2023-06-10T06:00:41;10.43;;;8.10;;
20348;SDS011;10332;50.208;18.988;2023-06-10T06:03:09;9.00;;;8.10;;
20348;SDS011;10332;50.208;18.988;2023-06-10T06:05:36;10.75;;;7.82;;
20348;SDS011;10332;50.208;18.988;2023-06-10T06:08:05;8.52;;;7.65;;
20348;SDS011;10332;50.208;18.988;2023-06-10T06:10:34;9.85;;;8.70;;
20348;SDS011;10332;50.208;18.988;2023-06-10T06:13:02;9.35;;;8.38;;
20348;SDS011;10332;50.208;18.988;2023-06-10T06:15:29;9.00;;;7.95;;
20348;SDS011;10332;50.208;18.988;2023-06-10T06:17:57;11.35;;;8.25;;
20348;SDS011;10332;50.208;18.988;2023-06-10T06:20:24;9.77;;;8.13;;
20348;SDS011;10332;50.208;18.988;2023-06-10T06:22:52;9.07;;;8.15;;
20348;SDS011;10332;50.208;18.988;2023-06-10T06:25:19;10.23;;;8.05;;
20348;SDS011;10332;50.208;18.988;2023-06-10T06:27:47;10.98;;;8.48;;
20348;SDS011;10332;50.208;18.988;2023-06-10T06:30:14;10.93;;;8.50;;
20348;SDS011;10332;50.208;18.988;2023-06-10T06:32:42;8.77;;;7.88;;
20348;SDS011;10332;50.208;18.988;2023-06-10T06:35:09;11.40;;;8.23;;
20348;SDS011;10332;50.208;18.988;2023-06-10T06:37:37;11.60;;;8.90;;
20348;SDS011;10332;50.208;18.988;2023-06-10T06:40:05;10.40;;;9.27;;
20348;SDS011;10332;50.208;18.988;2023-06-10T06:42:33;9.57;;;8.57;;
20348;SDS011;10332;50.208;18.988;2023-06-10T06:45:00;10.43;;;8.68;;
20348;SDS011;10332;50.208;18.988;2023-06-10T06:47:28;9.18;;;8.10;;
20348;SDS011;10332;50.208;18.988;2023-06-10T06:49:56;9.75;;;8.40;;
20348;SDS011;10332;50.208;18.988;2023-06-10T06:52:23;9.80;;;7.88;;
20348;SDS011;10332;50.208;18.988;2023-06-10T06:54:51;8.43;;;7.60;;
20348;SDS011;10332;50.208;18.988;2023-06-10T06:57:18;9.80;;;8.57;;
20348;SDS011;10332;50.208;18.988;2023-06-10T06:59:46;9.27;;;8.30;;
20348;SDS011;10332;50.208;18.988;2023-06-10T07:02:13;7.82;;;6.93;;
20348;SDS011;10332;50.208;18.988;2023-06-10T07:04:41;9.57;;;8.57;;
20348;SDS011;10332;50.208;18.988;2023-06-10T07:07:08;7.90;;;7.07;;
20348;SDS011;10332;50.208;18.988;2023-06-10T07:09:37;11.13;;;9.20;;
20348;SDS011;10332;50.208;18.988;2023-06-10T07:12:05;9.10;;;8.15;;
20348;SDS011;10332;50.208;18.988;2023-06-10T07:14:34;11.45;;;6.88;;
20348;SDS011;10332;50.208;18.988;2023-06-10T07:17:02;9.32;;;8.30;;
20348;SDS011;10332;50.208;18.988;2023-06-10T07:19:29;9.07;;;7.40;;
20348;SDS011;10332;50.208;18.988;2023-06-10T07:21:57;8.75;;;7.68;;
20348;SDS011;10332;50.208;18.988;2023-06-10T07:24:25;7.65;;;6.65;;
20348;SDS011;10332;50.208;18.988;2023-06-10T07:26:53;10.13;;;7.93;;
20348;SDS011;10332;50.208;18.988;2023-06-10T07:29:20;9.15;;;8.15;;
20348;SDS011;10332;50.208;18.988;2023-06-10T07:31:48;10.27;;;8.55;;
20348;SDS011;10332;50.208;18.988;2023-06-10T07:34:15;9.52;;;8.50;;
20348;SDS011;10332;50.208;18.988;2023-06-10T07:36:43;9.57;;;7.97;;
20348;SDS011;10332;50.208;18.988;2023-06-10T07:39:10;10.73;;;8.95;;
20348;SDS011;10332;50.208;18.988;2023-06-10T07:41:38;9.70;;;8.52;;
20348;SDS011;10332;50.208;18.988;2023-06-10T07:44:05;11.35;;;9.43;;
20348;SDS011;10332;50.208;18.988;2023-06-10T07:46:33;8.90;;;7.95;;
20348;SDS011;10332;50.208;18.988;2023-06-10T07:49:00;11.63;;;8.82;;
20348;SDS011;10332;50.208;18.988;2023-06-10T07:51:29;9.38;;;8.43;;
20348;SDS011;10332;50.208;18.988;2023-06-10T07:53:56;15.13;;;11.93;;
20348;SDS011;10332;50.208;18.988;2023-06-10T07:56:24;10.30;;;9.05;;
20348;SDS011;10332;50.208;18.988;2023-06-10T07:58:53;9.65;;;8.65;;
20348;SDS011;10332;50.208;18.988;2023-06-10T08:01:22;11.73;;;8.23;;
20348;SDS011;10332;50.208;18.988;2023-06-10T08:03:50;10.48;;;8.23;;
20348;SDS011;10332;50.208;18.988;2023-06-10T08:06:18;9.93;;;8.45;;
20348;SDS011;10332;50.208;18.988;2023-06-10T08:08:45;9.25;;;8.35;;
20348;SDS011;10332;50.208;18.988;2023-06-10T08:11:13;9.52;;;8.40;;
20348;SDS011;10332;50.208;18.988;2023-06-10T08:13:41;16.42;;;13.98;;
20348;SDS011;10332;50.208;18.988;2023-06-10T08:16:08;13.57;;;11.10;;
20348;SDS011;10332;50.208;18.988;2023-06-10T08:18:36;8.85;;;7.95;;
20348;SDS011;10332;50.208;18.988;2023-06-10T08:21:04;9.32;;;8.43;;
20348;SDS011;10332;50.208;18.988;2023-06-10T08:23:31;11.10;;;8.50;;
20348;SDS011;10332;50.208;18.988;2023-06-10T08:25:59;8.50;;;7.50;;
20348;SDS011;10332;50.208;18.988;2023-06-10T08:28:26;16.50;;;14.55;;
20348;SDS011;10332;50.208;18.988;2023-06-10T08:30:54;12.50;;;10.50;;
20348;SDS011;10332;50.208;18.988;2023-06-10T08:33:23;8.05;;;7.28;;
20348;SDS011;10332;50.208;18.988;2023-06-10T08:35:50;7.95;;;7.15;;
20348;SDS011;10332;50.208;18.988;2023-06-10T08:38:18;8.60;;;7.70;;
20348;SDS011;10332;50.208;18.988;2023-06-10T08:40:46;8.70;;;7.80;;
20348;SDS011;10332;50.208;18.988;2023-06-10T08:43:26;10.52;;;9.02;;
20348;SDS011;10332;50.208;18.988;2023-06-10T08:46:09;9.90;;;7.93;;
20348;SDS011;10332;50.208;18.988;2023-06-10T08:48:40;9.63;;;7.45;;
20348;SDS011;10332;50.208;18.988;2023-06-10T08:51:11;6.53;;;5.93;;
20348;SDS011;10332;50.208;18.988;2023-06-10T08:53:45;8.43;;;6.07;;
20348;SDS011;10332;50.208;18.988;2023-06-10T08:56:24;6.57;;;5.90;;
20348;SDS011;10332;50.208;18.988;2023-06-10T08:58:55;7.50;;;6.68;;
20348;SDS011;10332;50.208;18.988;2023-06-10T09:01:24;6.80;;;6.10;;
20348;SDS011;10332;50.208;18.988;2023-06-10T09:03:54;7.10;;;6.40;;
20348;SDS011;10332;50.208;18.988;2023-06-10T09:06:23;7.13;;;6.43;;
20348;SDS011;10332;50.208;18.988;2023-06-10T09:08:52;8.10;;;7.30;;
20348;SDS011;10332;50.208;18.988;2023-06-10T09:11:19;7.25;;;6.55;;
20348;SDS011;10332;50.208;18.988;2023-06-10T09:13:47;8.32;;;6.53;;
20348;SDS011;10332;50.208;18.988;2023-06-10T09:16:14;7.15;;;6.47;;
20348;SDS011;10332;50.208;18.988;2023-06-10T09:18:42;9.57;;;8.02;;
20348;SDS011;10332;50.208;18.988;2023-06-10T09:21:11;7.03;;;6.30;;
20348;SDS011;10332;50.208;18.988;2023-06-10T09:23:38;7.07;;;6.13;;
20348;SDS011;10332;50.208;18.988;2023-06-10T09:26:08;7.55;;;6.78;;
20348;SDS011;10332;50.208;18.988;2023-06-10T09:28:37;6.22;;;5.63;;
20348;SDS011;10332;50.208;18.988;2023-06-10T09:31:07;6.68;;;5.97;;
20348;SDS011;10332;50.208;18.988;2023-06-10T09:33:39;7.28;;;5.93;;
20348;SDS011;10332;50.208;18.988;2023-06-10T09:36:07;10.38;;;9.27;;
20348;SDS011;10332;50.208;18.988;2023-06-10T09:38:34;13.48;;;11.32;;
20348;SDS011;10332;50.208;18.988;2023-06-10T09:41:02;6.68;;;6.03;;
20348;SDS011;10332;50.208;18.988;2023-06-10T09:43:40;8.10;;;6.25;;
20348;SDS011;10332;50.208;18.988;2023-06-10T09:46:19;6.63;;;5.93;;
20348;SDS011;10332;50.208;18.988;2023-06-10T09:48:47;6.30;;;5.80;;
20348;SDS011;10332;50.208;18.988;2023-06-10T09:51:15;6.70;;;6.05;;
20348;SDS011;10332;50.208;18.988;2023-06-10T09:53:53;7.43;;;5.72;;
20348;SDS011;10332;50.208;18.988;2023-06-10T09:56:21;7.03;;;6.15;;
20348;SDS011;10332;50.208;18.988;2023-06-10T09:58:59;6.60;;;6.00;;
20348;SDS011;10332;50.208;18.988;2023-06-10T10:01:27;6.68;;;6.07;;
20348;SDS011;10332;50.208;18.988;2023-06-10T10:03:57;6.68;;;6.00;;
20348;SDS011;10332;50.208;18.988;2023-06-10T10:06:25;6.93;;;6.22;;
20348;SDS011;10332;50.208;18.988;2023-06-10T10:08:55;7.50;;;6.40;;
20348;SDS011;10332;50.208;18.988;2023-06-10T10:11:23;11.25;;;10.10;;
20348;SDS011;10332;50.208;18.988;2023-06-10T10:13:52;7.45;;;6.30;;
20348;SDS011;10332;50.208;18.988;2023-06-10T10:16:21;8.50;;;6.72;;
20348;SDS011;10332;50.208;18.988;2023-06-10T10:19:01;7.50;;;6.00;;
20348;SDS011;10332;50.208;18.988;2023-06-10T10:21:40;6.57;;;5.85;;
20348;SDS011;10332;50.208;18.988;2023-06-10T10:24:20;6.57;;;5.43;;
20348;SDS011;10332;50.208;18.988;2023-06-10T10:26:53;7.10;;;5.40;;
20348;SDS011;10332;50.208;18.988;2023-06-10T10:29:38;6.75;;;5.63;;
20348;SDS011;10332;50.208;18.988;2023-06-10T10:32:08;7.53;;;5.75;;
20348;SDS011;10332;50.208;18.988;2023-06-10T10:37:36;7.70;;;5.53;;
20348;SDS011;10332;50.208;18.988;2023-06-10T10:40:05;7.38;;;5.28;;
20348;SDS011;10332;50.208;18.988;2023-06-10T10:42:35;7.93;;;5.38;;
20348;SDS011;10332;50.208;18.988;2023-06-10T10:45:05;6.18;;;4.90;;
20348;SDS011;10332;50.208;18.988;2023-06-10T10:47:35;6.85;;;5.53;;
20348;SDS011;10332;50.208;18.988;2023-06-10T10:50:12;5.60;;;4.93;;
20348;SDS011;10332;50.208;18.988;2023-06-10T10:52:46;6.05;;;4.53;;
20348;SDS011;10332;50.208;18.988;2023-06-10T10:55:32;5.60;;;3.92;;
20348;SDS011;10332;50.208;18.988;2023-06-10T10:58:07;5.10;;;4.40;;
20348;SDS011;10332;50.208;18.988;2023-06-10T11:00:43;5.03;;;4.35;;
20348;SDS011;10332;50.208;18.988;2023-06-10T11:03:12;6.95;;;4.60;;
20348;SDS011;10332;50.208;18.988;2023-06-10T11:05:47;4.68;;;4.10;;
20348;SDS011;10332;50.208;18.988;2023-06-10T11:08:45;5.03;;;4.45;;
20348;SDS011;10332;50.208;18.988;2023-06-10T11:11:25;6.90;;;4.78;;
20348;SDS011;10332;50.208;18.988;2023-06-10T11:13:59;4.78;;;3.80;;
20348;SDS011;10332;50.208;18.988;2023-06-10T11:16:39;4.93;;;4.40;;
20348;SDS011;10332;50.208;18.988;2023-06-10T11:19:10;4.57;;;3.85;;
20348;SDS011;10332;50.208;18.988;2023-06-10T11:22:02;5.25;;;4.28;;
20348;SDS011;10332;50.208;18.988;2023-06-10T11:24:33;4.88;;;4.00;;
20348;SDS011;10332;50.208;18.988;2023-06-10T11:27:17;5.20;;;4.28;;
20348;SDS011;10332;50.208;18.988;2023-06-10T11:32:33;4.60;;;4.10;;
20348;SDS011;10332;50.208;18.988;2023-06-10T11:35:02;5.53;;;4.35;;
20348;SDS011;10332;50.208;18.988;2023-06-10T11:37:31;5.22;;;4.60;;
20348;SDS011;10332;50.208;18.988;2023-06-10T11:39:59;5.90;;;4.00;;
20348;SDS011;10332;50.208;18.988;2023-06-10T11:42:27;4.22;;;3.83;;
20348;SDS011;10332;50.208;18.988;2023-06-10T11:44:56;5.93;;;4.35;;
20348;SDS011;10332;50.208;18.988;2023-06-10T11:47:23;5.97;;;4.80;;
20348;SDS011;10332;50.208;18.988;2023-06-10T11:49:57;4.70;;;4.22;;
20348;SDS011;10332;50.208;18.988;2023-06-10T11:52:28;6.75;;;4.20;;
20348;SDS011;10332;50.208;18.988;2023-06-10T11:55:05;4.63;;;4.05;;
20348;SDS011;10332;50.208;18.988;2023-06-10T11:57:36;5.43;;;4.53;;
20348;SDS011;10332;50.208;18.988;2023-06-10T12:00:05;5.00;;;4.45;;
20348;SDS011;10332;50.208;18.988;2023-06-10T12:02:34;5.22;;;4.72;;
20348;SDS011;10332;50.208;18.988;2023-06-10T12:05:12;5.35;;;4.80;;
20348;SDS011;10332;50.208;18.988;2023-06-10T12:07:40;5.60;;;5.00;;
20348;SDS011;10332;50.208;18.988;2023-06-10T12:10:08;4.47;;;4.07;;
20348;SDS011;10332;50.208;18.988;2023-06-10T12:12:53;4.85;;;4.07;;
20348;SDS011;10332;50.208;18.988;2023-06-10T12:15:24;4.53;;;4.07;;
20348;SDS011;10332;50.208;18.988;2023-06-10T12:17:52;4.88;;;4.10;;
20348;SDS011;10332;50.208;18.988;2023-06-10T12:20:30;5.05;;;4.30;;
20348;SDS011;10332;50.208;18.988;2023-06-10T12:23:08;3.92;;;3.28;;
20348;SDS011;10332;50.208;18.988;2023-06-10T12:25:37;4.20;;;3.90;;
20348;SDS011;10332;50.208;18.988;2023-06-10T12:28:09;4.18;;;3.78;;
20348;SDS011;10332;50.208;18.988;2023-06-10T12:30:37;4.60;;;3.95;;
20348;SDS011;10332;50.208;18.988;2023-06-10T12:33:05;5.88;;;4.22;;
20348;SDS011;10332;50.208;18.988;2023-06-10T12:35:52;4.63;;;4.10;;
20348;SDS011;10332;50.208;18.988;2023-06-10T12:38:23;4.28;;;3.40;;
20348;SDS011;10332;50.208;18.988;2023-06-10T12:41:02;4.47;;;3.67;;
20348;SDS011;10332;50.208;18.988;2023-06-10T12:43:30;6.07;;;3.85;;
20348;SDS011;10332;50.208;18.988;2023-06-10T12:46:09;4.53;;;4.07;;
20348;SDS011;10332;50.208;18.988;2023-06-10T12:48:48;4.57;;;3.92;;
20348;SDS011;10332;50.208;18.988;2023-06-10T12:51:21;4.65;;;3.90;;
20348;SDS011;10332;50.208;18.988;2023-06-10T12:53:49;4.57;;;3.90;;
20348;SDS011;10332;50.208;18.988;2023-06-10T12:56:17;4.55;;;3.83;;
20348;SDS011;10332;50.208;18.988;2023-06-10T12:58:44;4.15;;;3.75;;
20348;SDS011;10332;50.208;18.988;2023-06-10T13:01:13;4.95;;;4.38;;
20348;SDS011;10332;50.208;18.988;2023-06-10T13:03:40;4.78;;;4.38;;
20348;SDS011;10332;50.208;18.988;2023-06-10T13:06:08;4.75;;;4.25;;
20348;SDS011;10332;50.208;18.988;2023-06-10T13:08:35;5.03;;;4.53;;
20348;SDS011;10332;50.208;18.988;2023-06-10T13:11:03;4.47;;;4.07;;
20348;SDS011;10332;50.208;18.988;2023-06-10T13:13:30;4.97;;;4.28;;
20348;SDS011;10332;50.208;18.988;2023-06-10T13:15:58;4.13;;;3.75;;
20348;SDS011;10332;50.208;18.988;2023-06-10T13:18:25;7.07;;;4.28;;
20348;SDS011;10332;50.208;18.988;2023-06-10T13:20:53;7.10;;;4.22;;
20348;SDS011;10332;50.208;18.988;2023-06-10T13:23:20;4.88;;;4.38;;
20348;SDS011;10332;50.208;18.988;2023-06-10T13:25:48;4.93;;;4.50;;
20348;SDS011;10332;50.208;18.988;2023-06-10T13:28:16;5.72;;;4.15;;
20348;SDS011;10332;50.208;18.988;2023-06-10T13:30:43;5.55;;;4.70;;
20348;SDS011;10332;50.208;18.988;2023-06-10T13:33:11;5.65;;;4.63;;
20348;SDS011;10332;50.208;18.988;2023-06-10T13:35:39;5.95;;;4.88;;
20348;SDS011;10332;50.208;18.988;2023-06-10T13:38:06;5.72;;;5.00;;
20348;SDS011;10332;50.208;18.988;2023-06-10T13:40:34;5.47;;;4.80;;
20348;SDS011;10332;50.208;18.988;2023-06-10T13:43:01;4.25;;;3.85;;
20348;SDS011;10332;50.208;18.988;2023-06-10T13:45:29;5.10;;;4.60;;
20348;SDS011;10332;50.208;18.988;2023-06-10T13:47:57;5.45;;;4.68;;
20348;SDS011;10332;50.208;18.988;2023-06-10T13:50:25;5.53;;;4.60;;
20348;SDS011;10332;50.208;18.988;2023-06-10T13:52:52;4.57;;;4.18;;
20348;SDS011;10332;50.208;18.988;2023-06-10T13:55:20;4.50;;;4.10;;
20348;SDS011;10332;50.208;18.988;2023-06-10T13:57:48;4.47;;;4.07;;
20348;SDS011;10332;50.208;18.988;2023-06-10T14:00:15;5.07;;;4.20;;
20348;SDS011;10332;50.208;18.988;2023-06-10T14:02:43;4.38;;;4.03;;
20348;SDS011;10332;50.208;18.988;2023-06-10T14:05:11;5.00;;;4.53;;
20348;SDS011;10332;50.208;18.988;2023-06-10T14:07:39;6.63;;;4.82;;
20348;SDS011;10332;50.208;18.988;2023-06-10T14:10:07;6.50;;;4.65;;
20348;SDS011;10332;50.208;18.988;2023-06-10T14:12:36;4.75;;;4.32;;
20348;SDS011;10332;50.208;18.988;2023-06-10T14:15:04;4.68;;;4.28;;
20348;SDS011;10332;50.208;18.988;2023-06-10T14:17:32;4.97;;;4.45;;
20348;SDS011;10332;50.208;18.988;2023-06-10T14:19:59;5.88;;;5.03;;
20348;SDS011;10332;50.208;18.988;2023-06-10T14:22:27;6.60;;;4.70;;
20348;SDS011;10332;50.208;18.988;2023-06-10T14:24:55;4.50;;;4.10;;
20348;SDS011;10332;50.208;18.988;2023-06-10T14:27:22;4.80;;;4.28;;
20348;SDS011;10332;50.208;18.988;2023-06-10T14:29:50;4.22;;;3.88;;
20348;SDS011;10332;50.208;18.988;2023-06-10T14:32:17;5.15;;;3.65;;
20348;SDS011;10332;50.208;18.988;2023-06-10T14:34:45;3.55;;;3.05;;
20348;SDS011;10332;50.208;18.988;2023-06-10T14:37:13;3.90;;;2.80;;
20348;SDS011;10332;50.208;18.988;2023-06-10T14:39:41;3.90;;;3.40;;
20348;SDS011;10332;50.208;18.988;2023-06-10T14:42:08;3.33;;;2.80;;
20348;SDS011;10332;50.208;18.988;2023-06-10T14:44:37;6.70;;;3.22;;
20348;SDS011;10332;50.208;18.988;2023-06-10T14:47:04;3.00;;;2.70;;
20348;SDS011;10332;50.208;18.988;2023-06-10T14:49:32;3.45;;;2.45;;